Terminal Aerodrome Forecast
Issued by NWS Wilmington, NC

Current Version | Previous Version | Text Only | Print | Product List | Glossary On
Versions: 1 2 3 4 5 6 7 8 9 10 11 12 13 14 15 16 17
000
FTUS42 KILM 250500
TAFMYR
TAF
KMYR 250520Z 2506/2606 25006KT P6SM VCSH SCT050 BKN080
     FM251300 29005KT P6SM SCT050 SCT100
     FM251800 18008KT P6SM VCTS BKN050CB
     FM260200 VRB02KT P6SM SCT040 SCT100
      AMD LTD TO CLD VIS AND WIND TIL 251100=

USA.gov is the U.S. government's official web portal to all federal, state and local government web resources and services.